BCS2210 EDDP-EGKK
Flight info
| Callsign | BCS2210 |
|---|---|
| Flight time | 1h 14m |
| Altitude | 34000 |
| Route | PENEM1S PENEM Y233 EMBOX L986 POVEL DCT GALSO Q63 ARREK Y4 TEBRA |
| Aircraft | B77L/H-SDE1E2E3FGHIJ2J3J4J5M1RWXY/LB1D1 |
Departure
| Time | 2026-05-04 19:23 |
|---|---|
| Airport | Leipzig/Halle Airport (EDDP) |
Arrival
| Time | 2026-05-04 20:38 |
|---|---|
| Airport | London Gatwick Airport (EGKK) |
| Time | Latitude | Longitude | Altitude | Speed | Heading |
|---|---|---|---|---|---|
| 2026-05-04 18:44 | 51.40893 | 12.24510 | 470 ft | 0 kts | 265° |
| 2026-05-04 18:47 | 51.40968 | 12.24493 | 472 ft | 0 kts | 265° |
| 2026-05-04 18:48 | 51.40944 | 12.24512 | 472 ft | 0 kts | 266° |
| 2026-05-04 19:09 | 51.40944 | 12.24520 | 469 ft | 4 kts | 265° |
| 2026-05-04 19:09 | 51.40947 | 12.24563 | 464 ft | 4 kts | 263° |
| 2026-05-04 19:09 | 51.40948 | 12.24605 | 464 ft | 4 kts | 285° |
| 2026-05-04 19:10 | 51.40938 | 12.24638 | 464 ft | 4 kts | 309° |
| 2026-05-04 19:10 | 51.40918 | 12.24663 | 464 ft | 4 kts | 345° |
| 2026-05-04 19:10 | 51.40892 | 12.24668 | 463 ft | 4 kts | 358° |
| 2026-05-04 19:10 | 51.40886 | 12.24668 | 463 ft | 2 kts | 356° |
| 2026-05-04 19:11 | 51.40885 | 12.24668 | 470 ft | 0 kts | 356° |
| 2026-05-04 19:14 | 51.40896 | 12.24667 | 470 ft | 4 kts | 356° |
| 2026-05-04 19:15 | 51.40952 | 12.24661 | 468 ft | 11 kts | 356° |
| 2026-05-04 19:15 | 51.41031 | 12.24652 | 472 ft | 11 kts | 356° |
| 2026-05-04 19:15 | 51.41098 | 12.24696 | 471 ft | 11 kts | 67° |
| 2026-05-04 19:15 | 51.41106 | 12.24822 | 474 ft | 11 kts | 85° |
| 2026-05-04 19:16 | 51.41112 | 12.24950 | 476 ft | 11 kts | 85° |
| 2026-05-04 19:16 | 51.41118 | 12.25077 | 469 ft | 11 kts | 85° |
| 2026-05-04 19:16 | 51.41124 | 12.25204 | 476 ft | 11 kts | 85° |
| 2026-05-04 19:16 | 51.41130 | 12.25330 | 477 ft | 11 kts | 85° |
| 2026-05-04 19:17 | 51.41154 | 12.25446 | 471 ft | 11 kts | 34° |
| 2026-05-04 19:17 | 51.41232 | 12.25446 | 476 ft | 11 kts | 346° |
| 2026-05-04 19:17 | 51.41248 | 12.25440 | 473 ft | 0 kts | 343° |
| 2026-05-04 19:17 | 51.41249 | 12.25439 | 473 ft | 0 kts | 343° |
| 2026-05-04 19:22 | 51.41250 | 12.25438 | 480 ft | 2 kts | 343° |
| 2026-05-04 19:22 | 51.41313 | 12.25389 | 472 ft | 18 kts | 324° |
| 2026-05-04 19:22 | 51.41378 | 12.25221 | 475 ft | 19 kts | 280° |
| 2026-05-04 19:22 | 51.41365 | 12.24801 | 476 ft | 68 kts | 265° |
| 2026-05-04 19:23 | 51.41312 | 12.23677 | 477 ft | 134 kts | 265° |
| 2026-05-04 19:23 | 51.41230 | 12.21884 | 518 ft | 179 kts | 266° |
| 2026-05-04 19:23 | 51.41153 | 12.19915 | 1040 ft | 180 kts | 266° |
| 2026-05-04 19:23 | 51.41033 | 12.17806 | 1441 ft | 194 kts | 265° |
| 2026-05-04 19:24 | 51.40900 | 12.15636 | 2028 ft | 201 kts | 265° |
| 2026-05-04 19:24 | 51.40763 | 12.13315 | 2537 ft | 217 kts | 269° |
| 2026-05-04 19:24 | 51.41124 | 12.10879 | 2793 ft | 241 kts | 303° |
| 2026-05-04 19:24 | 51.42337 | 12.08992 | 3535 ft | 248 kts | 330° |
| 2026-05-04 19:25 | 51.43985 | 12.08133 | 4355 ft | 254 kts | 353° |
| 2026-05-04 19:25 | 51.45775 | 12.08061 | 5181 ft | 260 kts | 360° |
| 2026-05-04 19:25 | 51.47613 | 12.08124 | 5958 ft | 270 kts | 360° |
| 2026-05-04 19:25 | 51.49535 | 12.08171 | 6651 ft | 282 kts | 359° |
| 2026-05-04 19:26 | 51.51515 | 12.08196 | 6965 ft | 287 kts | 359° |
| 2026-05-04 19:26 | 51.53534 | 12.08212 | 6950 ft | 290 kts | 359° |
| 2026-05-04 19:26 | 51.55545 | 12.08272 | 6947 ft | 287 kts | 360° |
| 2026-05-04 19:26 | 51.57534 | 12.08346 | 6938 ft | 285 kts | 360° |
| 2026-05-04 19:27 | 51.59516 | 12.08419 | 7072 ft | 286 kts | 360° |
| 2026-05-04 19:27 | 51.61510 | 12.08489 | 7916 ft | 289 kts | 359° |
| 2026-05-04 19:27 | 51.63535 | 12.08557 | 8807 ft | 293 kts | 359° |
| 2026-05-04 19:27 | 51.65591 | 12.08625 | 9725 ft | 297 kts | 359° |
| 2026-05-04 19:28 | 51.67681 | 12.08693 | 10494 ft | 305 kts | 359° |
| 2026-05-04 19:28 | 51.69839 | 12.08593 | 10743 ft | 325 kts | 346° |
| 2026-05-04 19:28 | 51.71937 | 12.07066 | 10939 ft | 344 kts | 318° |
| 2026-05-04 19:28 | 51.73637 | 12.04232 | 11154 ft | 361 kts | 309° |
| 2026-05-04 19:29 | 51.75329 | 12.01117 | 11782 ft | 374 kts | 309° |
| 2026-05-04 19:29 | 51.77080 | 11.97935 | 12589 ft | 382 kts | 309° |
| 2026-05-04 19:29 | 51.78871 | 11.94713 | 13488 ft | 387 kts | 309° |
| 2026-05-04 19:29 | 51.80695 | 11.91460 | 14344 ft | 391 kts | 310° |
| 2026-05-04 19:30 | 51.82535 | 11.88189 | 15132 ft | 396 kts | 309° |
| 2026-05-04 19:30 | 51.84400 | 11.84863 | 15904 ft | 401 kts | 309° |
| 2026-05-04 19:30 | 51.86152 | 11.81347 | 16668 ft | 404 kts | 302° |
| 2026-05-04 19:30 | 51.87753 | 11.77585 | 17431 ft | 408 kts | 301° |
| 2026-05-04 19:31 | 51.89349 | 11.73760 | 18206 ft | 413 kts | 301° |
| 2026-05-04 19:31 | 51.90949 | 11.69932 | 18887 ft | 416 kts | 301° |
| 2026-05-04 19:31 | 51.92592 | 11.66028 | 19650 ft | 419 kts | 301° |
| 2026-05-04 19:31 | 51.94246 | 11.62118 | 20397 ft | 421 kts | 301° |
| 2026-05-04 19:32 | 51.95911 | 11.58190 | 21137 ft | 423 kts | 301° |
| 2026-05-04 19:32 | 51.97581 | 11.54248 | 21882 ft | 425 kts | 301° |
| 2026-05-04 19:32 | 51.99261 | 11.50280 | 22543 ft | 429 kts | 301° |
| 2026-05-04 19:32 | 52.00937 | 11.46314 | 23168 ft | 433 kts | 301° |
| 2026-05-04 19:33 | 52.02645 | 11.42264 | 23766 ft | 437 kts | 301° |
| 2026-05-04 19:33 | 52.04256 | 11.38085 | 24317 ft | 437 kts | 295° |
| 2026-05-04 19:33 | 52.05539 | 11.33605 | 24911 ft | 436 kts | 288° |
| 2026-05-04 19:33 | 52.06555 | 11.28955 | 25501 ft | 436 kts | 283° |
| 2026-05-04 19:34 | 52.07267 | 11.24164 | 26074 ft | 436 kts | 279° |
| 2026-05-04 19:34 | 52.07904 | 11.19326 | 26602 ft | 439 kts | 279° |
| 2026-05-04 19:34 | 52.08543 | 11.14447 | 27130 ft | 442 kts | 279° |
| 2026-05-04 19:34 | 52.09196 | 11.09537 | 27667 ft | 444 kts | 279° |
| 2026-05-04 19:35 | 52.09864 | 11.04568 | 28199 ft | 447 kts | 279° |
| 2026-05-04 19:35 | 52.10521 | 10.99721 | 28689 ft | 449 kts | 279° |
| 2026-05-04 19:35 | 52.11195 | 10.94750 | 29165 ft | 451 kts | 279° |
| 2026-05-04 19:35 | 52.11872 | 10.89738 | 29620 ft | 454 kts | 279° |
| 2026-05-04 19:36 | 52.12427 | 10.84677 | 30204 ft | 450 kts | 274° |
| 2026-05-04 19:36 | 52.12704 | 10.79652 | 30895 ft | 443 kts | 270° |
| 2026-05-04 19:36 | 52.12703 | 10.74706 | 31453 ft | 439 kts | 265° |
| 2026-05-04 19:36 | 52.12586 | 10.69753 | 31905 ft | 438 kts | 265° |
| 2026-05-04 19:37 | 52.12469 | 10.64796 | 32359 ft | 438 kts | 265° |
| 2026-05-04 19:37 | 52.12353 | 10.59843 | 32826 ft | 437 kts | 265° |
| 2026-05-04 19:37 | 52.12240 | 10.54918 | 33302 ft | 435 kts | 265° |
| 2026-05-04 19:37 | 52.12130 | 10.50004 | 33761 ft | 434 kts | 265° |
| 2026-05-04 19:38 | 52.12019 | 10.45088 | 34016 ft | 437 kts | 265° |
| 2026-05-04 19:38 | 52.11794 | 10.35154 | 33980 ft | 438 kts | 265° |
| 2026-05-04 19:39 | 52.11565 | 10.25307 | 33990 ft | 438 kts | 265° |
| 2026-05-04 19:39 | 52.11322 | 10.15296 | 33985 ft | 446 kts | 265° |
| 2026-05-04 19:40 | 52.11068 | 10.05177 | 33979 ft | 450 kts | 265° |
| 2026-05-04 19:40 | 52.10806 | 9.94995 | 33983 ft | 449 kts | 265° |
| 2026-05-04 19:41 | 52.10582 | 9.86553 | 33972 ft | 449 kts | 265° |
| 2026-05-04 19:41 | 52.10303 | 9.76401 | 33984 ft | 448 kts | 264° |
| 2026-05-04 19:42 | 52.10017 | 9.66265 | 33976 ft | 447 kts | 264° |
| 2026-05-04 19:42 | 52.09722 | 9.56148 | 33976 ft | 447 kts | 264° |
| 2026-05-04 19:43 | 52.09420 | 9.46095 | 33970 ft | 446 kts | 264° |
| 2026-05-04 19:43 | 52.09108 | 9.36006 | 33971 ft | 446 kts | 264° |
| 2026-05-04 19:44 | 52.08788 | 9.25990 | 33977 ft | 446 kts | 264° |
| 2026-05-04 19:44 | 52.08462 | 9.15922 | 33969 ft | 446 kts | 264° |
| 2026-05-04 19:45 | 52.08125 | 9.05861 | 33965 ft | 446 kts | 264° |
| 2026-05-04 19:45 | 52.07780 | 8.95789 | 33977 ft | 445 kts | 264° |
| 2026-05-04 19:46 | 52.07425 | 8.85705 | 33993 ft | 446 kts | 263° |
| 2026-05-04 19:46 | 52.07064 | 8.75688 | 33979 ft | 446 kts | 263° |
| 2026-05-04 19:47 | 52.06692 | 8.65626 | 33970 ft | 445 kts | 263° |
| 2026-05-04 19:47 | 52.06316 | 8.55646 | 33973 ft | 444 kts | 263° |
| 2026-05-04 19:48 | 52.05929 | 8.45621 | 33974 ft | 444 kts | 263° |
| 2026-05-04 19:48 | 52.05534 | 8.35602 | 33994 ft | 444 kts | 263° |
| 2026-05-04 19:49 | 52.05128 | 8.25541 | 33983 ft | 445 kts | 262° |
| 2026-05-04 19:49 | 52.04716 | 8.15529 | 33972 ft | 446 kts | 262° |
| 2026-05-04 19:50 | 52.04291 | 8.05434 | 33966 ft | 447 kts | 262° |
| 2026-05-04 19:50 | 52.03859 | 7.95343 | 33970 ft | 448 kts | 262° |
| 2026-05-04 19:51 | 52.03421 | 7.85319 | 33981 ft | 448 kts | 262° |
| 2026-05-04 19:51 | 52.02967 | 7.75153 | 33967 ft | 450 kts | 262° |
| 2026-05-04 19:52 | 52.02507 | 7.65033 | 33962 ft | 451 kts | 262° |
| 2026-05-04 19:52 | 52.02035 | 7.54864 | 33968 ft | 452 kts | 262° |
| 2026-05-04 19:53 | 52.01555 | 7.44677 | 33968 ft | 452 kts | 262° |
| 2026-05-04 19:53 | 52.01068 | 7.34539 | 33986 ft | 453 kts | 261° |
| 2026-05-04 19:54 | 52.00566 | 7.24305 | 33973 ft | 454 kts | 261° |
| 2026-05-04 19:54 | 52.00056 | 7.14070 | 33960 ft | 455 kts | 261° |
| 2026-05-04 19:55 | 51.99536 | 7.03809 | 33958 ft | 455 kts | 261° |
| 2026-05-04 19:55 | 51.99008 | 6.93568 | 33960 ft | 455 kts | 261° |
| 2026-05-04 19:56 | 51.98470 | 6.83315 | 33973 ft | 456 kts | 261° |
| 2026-05-04 19:56 | 51.97925 | 6.73106 | 33963 ft | 457 kts | 261° |
| 2026-05-04 19:57 | 51.97369 | 6.62863 | 33965 ft | 458 kts | 261° |
| 2026-05-04 19:57 | 51.96800 | 6.52534 | 33965 ft | 458 kts | 261° |
| 2026-05-04 19:58 | 51.96225 | 6.42265 | 33968 ft | 459 kts | 261° |
| 2026-05-04 19:58 | 51.95638 | 6.31959 | 33970 ft | 460 kts | 261° |
| 2026-05-04 19:59 | 51.95038 | 6.21572 | 33969 ft | 462 kts | 261° |
| 2026-05-04 19:59 | 51.94717 | 6.16083 | 33972 ft | 464 kts | 261° |
| 2026-05-04 20:00 | 51.94224 | 6.07744 | 33969 ft | 465 kts | 261° |
| 2026-05-04 20:00 | 51.92014 | 5.71492 | 33986 ft | 469 kts | 261° |
| 2026-05-04 20:01 | 51.89298 | 5.29299 | 33992 ft | 472 kts | 261° |
| 2026-05-04 20:01 | 51.86410 | 4.86849 | 33975 ft | 474 kts | 261° |
| 2026-05-04 20:02 | 51.83377 | 4.44576 | 33996 ft | 476 kts | 261° |
| 2026-05-04 20:02 | 51.80165 | 4.01986 | 33993 ft | 476 kts | 260° |
| 2026-05-04 20:03 | 51.78214 | 3.77099 | 33995 ft | 476 kts | 261° |
| 2026-05-04 20:03 | 51.77375 | 3.66596 | 33999 ft | 476 kts | 261° |
| 2026-05-04 20:04 | 51.76524 | 3.56061 | 33998 ft | 475 kts | 261° |
| 2026-05-04 20:04 | 51.75658 | 3.45471 | 33995 ft | 475 kts | 261° |
| 2026-05-04 20:05 | 51.74782 | 3.34883 | 34009 ft | 475 kts | 261° |
| 2026-05-04 20:05 | 51.73900 | 3.24312 | 34008 ft | 475 kts | 261° |
| 2026-05-04 20:06 | 51.73012 | 3.13796 | 34006 ft | 470 kts | 260° |
| 2026-05-04 20:06 | 51.72124 | 3.03447 | 33651 ft | 463 kts | 260° |
| 2026-05-04 20:06 | 51.71677 | 2.98281 | 32838 ft | 465 kts | 260° |
| 2026-05-04 20:07 | 51.71235 | 2.93199 | 32246 ft | 460 kts | 260° |
| 2026-05-04 20:07 | 51.70793 | 2.88122 | 31705 ft | 455 kts | 259° |
| 2026-05-04 20:07 | 51.70352 | 2.83089 | 31140 ft | 451 kts | 259° |
| 2026-05-04 20:07 | 51.69913 | 2.78106 | 30602 ft | 447 kts | 259° |
| 2026-05-04 20:08 | 51.69475 | 2.73151 | 30058 ft | 443 kts | 259° |
| 2026-05-04 20:08 | 51.69038 | 2.68238 | 29450 ft | 440 kts | 259° |
| 2026-05-04 20:08 | 51.68604 | 2.63380 | 28906 ft | 435 kts | 259° |
| 2026-05-04 20:08 | 51.68178 | 2.58626 | 28370 ft | 431 kts | 259° |
| 2026-05-04 20:09 | 51.67749 | 2.53853 | 27828 ft | 427 kts | 260° |
| 2026-05-04 20:09 | 51.67322 | 2.49137 | 27317 ft | 423 kts | 260° |
| 2026-05-04 20:09 | 51.66890 | 2.44456 | 26795 ft | 420 kts | 259° |
| 2026-05-04 20:09 | 51.66455 | 2.39818 | 26286 ft | 416 kts | 260° |
| 2026-05-04 20:10 | 51.66021 | 2.35218 | 25775 ft | 413 kts | 261° |
| 2026-05-04 20:10 | 51.65589 | 2.30649 | 25284 ft | 410 kts | 261° |
| 2026-05-04 20:10 | 51.65166 | 2.26181 | 24803 ft | 407 kts | 260° |
| 2026-05-04 20:10 | 51.64740 | 2.21694 | 24313 ft | 404 kts | 260° |
| 2026-05-04 20:11 | 51.64315 | 2.17226 | 23834 ft | 402 kts | 261° |
| 2026-05-04 20:11 | 51.63890 | 2.12783 | 23311 ft | 400 kts | 261° |
| 2026-05-04 20:11 | 51.63474 | 2.08374 | 22780 ft | 397 kts | 261° |
| 2026-05-04 20:11 | 51.63080 | 2.03986 | 22284 ft | 394 kts | 261° |
| 2026-05-04 20:12 | 51.62690 | 1.99621 | 21817 ft | 390 kts | 261° |
| 2026-05-04 20:12 | 51.62304 | 1.95361 | 21353 ft | 388 kts | 261° |
| 2026-05-04 20:12 | 51.61908 | 1.91076 | 20905 ft | 385 kts | 260° |
| 2026-05-04 20:12 | 51.61403 | 1.86881 | 20434 ft | 379 kts | 252° |
| 2026-05-04 20:13 | 51.60393 | 1.82979 | 19973 ft | 376 kts | 241° |
| 2026-05-04 20:13 | 51.58996 | 1.79437 | 19530 ft | 374 kts | 231° |
| 2026-05-04 20:13 | 51.57282 | 1.76295 | 19099 ft | 372 kts | 227° |
| 2026-05-04 20:13 | 51.55545 | 1.73217 | 18643 ft | 371 kts | 227° |
| 2026-05-04 20:14 | 51.53823 | 1.70130 | 18177 ft | 371 kts | 228° |
| 2026-05-04 20:14 | 51.52109 | 1.67030 | 17682 ft | 370 kts | 228° |
| 2026-05-04 20:14 | 51.50423 | 1.63969 | 17188 ft | 369 kts | 228° |
| 2026-05-04 20:14 | 51.48809 | 1.60781 | 16721 ft | 364 kts | 238° |
| 2026-05-04 20:15 | 51.47840 | 1.57092 | 16315 ft | 355 kts | 252° |
| 2026-05-04 20:15 | 51.47063 | 1.53319 | 15882 ft | 357 kts | 250° |
| 2026-05-04 20:15 | 51.46224 | 1.49546 | 15450 ft | 363 kts | 249° |
| 2026-05-04 20:15 | 51.45340 | 1.45698 | 15002 ft | 371 kts | 249° |
| 2026-05-04 20:16 | 51.44440 | 1.41809 | 14534 ft | 372 kts | 249° |
| 2026-05-04 20:16 | 51.43387 | 1.38085 | 14160 ft | 364 kts | 235° |
| 2026-05-04 20:16 | 51.41674 | 1.35209 | 14034 ft | 360 kts | 216° |
| 2026-05-04 20:16 | 51.39618 | 1.32832 | 14041 ft | 366 kts | 215° |
| 2026-05-04 20:17 | 51.37542 | 1.30424 | 14040 ft | 369 kts | 216° |
| 2026-05-04 20:17 | 51.35469 | 1.28001 | 14019 ft | 368 kts | 216° |
| 2026-05-04 20:17 | 51.33413 | 1.25590 | 13763 ft | 365 kts | 216° |
| 2026-05-04 20:17 | 51.31370 | 1.23189 | 13329 ft | 362 kts | 216° |
| 2026-05-04 20:18 | 51.29372 | 1.20840 | 12842 ft | 359 kts | 216° |
| 2026-05-04 20:18 | 51.27371 | 1.18484 | 12505 ft | 354 kts | 216° |
| 2026-05-04 20:18 | 51.25409 | 1.16165 | 12334 ft | 350 kts | 217° |
| 2026-05-04 20:18 | 51.23444 | 1.13835 | 12126 ft | 354 kts | 217° |
| 2026-05-04 20:19 | 51.21448 | 1.11481 | 11953 ft | 358 kts | 216° |
| 2026-05-04 20:19 | 51.19439 | 1.09125 | 11753 ft | 358 kts | 216° |
| 2026-05-04 20:19 | 51.17436 | 1.06782 | 11577 ft | 355 kts | 216° |
| 2026-05-04 20:19 | 51.15470 | 1.04487 | 11386 ft | 353 kts | 216° |
| 2026-05-04 20:20 | 51.13491 | 1.02179 | 11198 ft | 352 kts | 216° |
| 2026-05-04 20:20 | 51.07985 | 0.95754 | 10655 ft | 338 kts | 217° |
| 2026-05-04 20:20 | 51.04826 | 0.90494 | 10189 ft | 313 kts | 246° |
| 2026-05-04 20:20 | 51.03709 | 0.86427 | 10012 ft | 294 kts | 246° |
| 2026-05-04 20:21 | 51.02106 | 0.80975 | 9954 ft | 278 kts | 245° |
| 2026-05-04 20:21 | 50.98872 | 0.70163 | 9297 ft | 288 kts | 245° |
| 2026-05-04 20:21 | 50.93092 | 0.50989 | 8162 ft | 268 kts | 245° |
| 2026-05-04 20:22 | 50.92122 | 0.47783 | 8050 ft | 266 kts | 245° |
| 2026-05-04 20:22 | 50.91429 | 0.45065 | 7897 ft | 267 kts | 261° |
| 2026-05-04 20:22 | 50.91581 | 0.42152 | 7784 ft | 267 kts | 288° |
| 2026-05-04 20:22 | 50.92704 | 0.36339 | 7554 ft | 277 kts | 287° |
| 2026-05-04 20:23 | 50.93758 | 0.30594 | 7273 ft | 279 kts | 287° |
| 2026-05-04 20:23 | 50.94294 | 0.27677 | 7081 ft | 271 kts | 287° |
| 2026-05-04 20:23 | 50.94980 | 0.24964 | 6737 ft | 261 kts | 308° |
| 2026-05-04 20:23 | 50.96131 | 0.22826 | 6341 ft | 254 kts | 312° |
| 2026-05-04 20:24 | 50.97262 | 0.20663 | 5945 ft | 253 kts | 310° |
| 2026-05-04 20:24 | 50.98354 | 0.18484 | 5524 ft | 253 kts | 310° |
| 2026-05-04 20:24 | 50.99436 | 0.16302 | 5226 ft | 248 kts | 310° |
| 2026-05-04 20:24 | 51.00491 | 0.14169 | 4879 ft | 245 kts | 310° |
| 2026-05-04 20:25 | 51.01526 | 0.11954 | 4280 ft | 248 kts | 300° |
| 2026-05-04 20:25 | 51.01880 | 0.10254 | 4036 ft | 243 kts | 277° |
| 2026-05-04 20:25 | 51.01949 | 0.07625 | 4072 ft | 241 kts | 276° |
| 2026-05-04 20:25 | 51.02049 | 0.04939 | 4009 ft | 243 kts | 277° |
| 2026-05-04 20:26 | 51.02161 | 0.02284 | 4004 ft | 238 kts | 276° |
| 2026-05-04 20:26 | 51.02270 | -0.00324 | 3996 ft | 235 kts | 276° |
| 2026-05-04 20:26 | 51.02380 | -0.02928 | 3996 ft | 237 kts | 276° |
| 2026-05-04 20:26 | 51.02488 | -0.05519 | 4005 ft | 239 kts | 276° |
| 2026-05-04 20:27 | 51.02600 | -0.08205 | 4012 ft | 241 kts | 276° |
| 2026-05-04 20:27 | 51.02710 | -0.10848 | 3977 ft | 244 kts | 275° |
| 2026-05-04 20:27 | 51.02824 | -0.13592 | 3591 ft | 247 kts | 276° |
| 2026-05-04 20:27 | 51.02932 | -0.16260 | 3475 ft | 234 kts | 276° |
| 2026-05-04 20:28 | 51.03036 | -0.18806 | 3367 ft | 228 kts | 276° |
| 2026-05-04 20:28 | 51.03138 | -0.21306 | 3315 ft | 228 kts | 276° |
| 2026-05-04 20:28 | 51.03237 | -0.23754 | 3226 ft | 213 kts | 276° |
| 2026-05-04 20:28 | 51.03329 | -0.26021 | 3115 ft | 198 kts | 276° |
| 2026-05-04 20:29 | 51.03420 | -0.28203 | 3051 ft | 198 kts | 276° |
| 2026-05-04 20:29 | 51.03510 | -0.30391 | 2999 ft | 197 kts | 276° |
| 2026-05-04 20:29 | 51.03598 | -0.32549 | 2997 ft | 196 kts | 276° |
| 2026-05-04 20:29 | 51.03686 | -0.34686 | 3002 ft | 195 kts | 276° |
| 2026-05-04 20:30 | 51.03770 | -0.36837 | 2998 ft | 196 kts | 276° |
| 2026-05-04 20:30 | 51.03857 | -0.39048 | 3010 ft | 204 kts | 276° |
| 2026-05-04 20:30 | 51.03943 | -0.41274 | 2997 ft | 201 kts | 276° |
| 2026-05-04 20:30 | 51.04032 | -0.43518 | 3009 ft | 205 kts | 276° |
| 2026-05-04 20:31 | 51.04121 | -0.45791 | 3015 ft | 207 kts | 276° |
| 2026-05-04 20:31 | 51.04212 | -0.48072 | 3004 ft | 206 kts | 276° |
| 2026-05-04 20:31 | 51.04398 | -0.50314 | 2993 ft | 203 kts | 292° |
| 2026-05-04 20:31 | 51.05110 | -0.52159 | 2990 ft | 197 kts | 320° |
| 2026-05-04 20:32 | 51.06253 | -0.53294 | 3009 ft | 193 kts | 346° |
| 2026-05-04 20:32 | 51.07565 | -0.53582 | 3013 ft | 191 kts | 8° |
| 2026-05-04 20:32 | 51.08814 | -0.53041 | 2993 ft | 184 kts | 31° |
| 2026-05-04 20:32 | 51.09700 | -0.51681 | 2985 ft | 177 kts | 66° |
| 2026-05-04 20:33 | 51.10161 | -0.49863 | 3044 ft | 178 kts | 69° |
| 2026-05-04 20:33 | 51.10585 | -0.47983 | 3003 ft | 181 kts | 71° |
| 2026-05-04 20:33 | 51.10989 | -0.46108 | 2998 ft | 181 kts | 73° |
| 2026-05-04 20:33 | 51.11313 | -0.44215 | 2990 ft | 171 kts | 77° |
| 2026-05-04 20:34 | 51.11574 | -0.42432 | 2979 ft | 164 kts | 78° |
| 2026-05-04 20:34 | 51.11824 | -0.40646 | 2744 ft | 164 kts | 78° |
| 2026-05-04 20:34 | 51.12066 | -0.38898 | 2523 ft | 157 kts | 78° |
| 2026-05-04 20:34 | 51.12296 | -0.37229 | 2333 ft | 152 kts | 78° |
| 2026-05-04 20:35 | 51.12516 | -0.35646 | 2138 ft | 143 kts | 78° |
| 2026-05-04 20:35 | 51.12726 | -0.34122 | 1931 ft | 141 kts | 78° |
| 2026-05-04 20:35 | 51.12938 | -0.32592 | 1753 ft | 140 kts | 78° |
| 2026-05-04 20:35 | 51.13146 | -0.31087 | 1549 ft | 139 kts | 78° |
| 2026-05-04 20:36 | 51.13353 | -0.29591 | 1373 ft | 137 kts | 78° |
| 2026-05-04 20:36 | 51.13560 | -0.28094 | 1182 ft | 139 kts | 78° |
| 2026-05-04 20:36 | 51.13769 | -0.26584 | 994 ft | 139 kts | 78° |
| 2026-05-04 20:36 | 51.13977 | -0.25068 | 780 ft | 140 kts | 78° |
| 2026-05-04 20:37 | 51.14174 | -0.23567 | 654 ft | 140 kts | 76° |
| 2026-05-04 20:37 | 51.14396 | -0.22045 | 401 ft | 140 kts | 76° |
| 2026-05-04 20:37 | 51.14609 | -0.20536 | 236 ft | 136 kts | 77° |
| 2026-05-04 20:37 | 51.14790 | -0.19215 | 215 ft | 108 kts | 78° |
| 2026-05-04 20:38 | 51.14925 | -0.18236 | 213 ft | 73 kts | 77° |
| 2026-05-04 20:38 | 51.15014 | -0.17604 | 219 ft | 53 kts | 77° |
| 2026-05-04 20:38 | 51.15135 | -0.17221 | 218 ft | 18 kts | 11° |
| 2026-05-04 20:38 | 51.15189 | -0.17253 | 218 ft | 4 kts | 327° |
| 2026-05-04 20:39 | 51.15194 | -0.17257 | 218 ft | 0 kts | 326° |
| 2026-05-04 20:40 | 51.15213 | -0.17278 | 216 ft | 7 kts | 326° |
| 2026-05-04 20:40 | 51.15263 | -0.17331 | 218 ft | 11 kts | 329° |
| 2026-05-04 20:41 | 51.15344 | -0.17367 | 215 ft | 12 kts | 348° |
| 2026-05-04 20:41 | 51.15427 | -0.17396 | 214 ft | 12 kts | 347° |
| 2026-05-04 20:41 | 51.15510 | -0.17426 | 212 ft | 12 kts | 347° |
| 2026-05-04 20:41 | 51.15593 | -0.17455 | 218 ft | 12 kts | 347° |
| 2026-05-04 20:42 | 51.15677 | -0.17483 | 213 ft | 12 kts | 348° |
| 2026-05-04 20:42 | 51.15749 | -0.17541 | 221 ft | 12 kts | 292° |
| 2026-05-04 20:42 | 51.15739 | -0.17674 | 217 ft | 12 kts | 256° |
| 2026-05-04 20:42 | 51.15720 | -0.17805 | 212 ft | 12 kts | 257° |
| 2026-05-04 20:43 | 51.15702 | -0.17938 | 218 ft | 12 kts | 257° |
| 2026-05-04 20:43 | 51.15693 | -0.17999 | 215 ft | 0 kts | 257° |
| 2026-05-04 20:43 | 51.15692 | -0.18007 | 216 ft | 2 kts | 257° |
| 2026-05-04 20:43 | 51.15683 | -0.18074 | 214 ft | 9 kts | 257° |
| 2026-05-04 20:44 | 51.15670 | -0.18169 | 211 ft | 9 kts | 257° |
| 2026-05-04 20:44 | 51.15656 | -0.18267 | 214 ft | 9 kts | 257° |
| 2026-05-04 20:44 | 51.15650 | -0.18364 | 216 ft | 9 kts | 295° |
| 2026-05-04 20:44 | 51.15688 | -0.18389 | 218 ft | 4 kts | 349° |
| 2026-05-04 20:45 | 51.15706 | -0.18395 | 218 ft | 1 kts | 348° |
| 2026-05-04 20:45 | 51.15708 | -0.18395 | 217 ft | 0 kts | 348° |